Time;durP1;ratioP1;P1;durP2;ratioP2;P2;SDS_P1;SDS_P2;PMS_P1;PMS_P2;Temp;Humidity;BMP_temperature;BMP_pressure;BME280_temperature;BME280_humidity;BME280_pressure;Samples;Min_cycle;Max_cycle;Signal;HPM_P1;HPM_P2
2022/06/15 00:00:14;;;;;;;14.17;13.37;;;16.60;99.90;;;;;;4971131;28;20460;-69
2022/06/15 00:02:41;;;;;;;13.70;13.00;;;16.50;99.90;;;;;;4971852;28;20491;-70
2022/06/15 00:05:09;;;;;;;14.30;13.27;;;16.40;99.90;;;;;;4972171;28;20463;-70
2022/06/15 00:07:36;;;;;;;13.10;12.33;;;16.30;99.90;;;;;;4972490;28;20526;-70
2022/06/15 00:10:03;;;;;;;13.47;12.77;;;16.30;99.90;;;;;;4972411;28;20455;-69
2022/06/15 00:12:29;;;;;;;15.23;13.80;;;16.30;99.90;;;;;;4970102;28;20456;-69
2022/06/15 00:14:56;;;;;;;13.77;13.07;;;16.40;99.90;;;;;;4972177;28;20604;-70
2022/06/15 00:17:23;;;;;;;14.07;13.17;;;16.40;99.90;;;;;;4972284;28;20612;-69
2022/06/15 00:19:50;;;;;;;13.93;13.13;;;16.40;99.90;;;;;;4972566;28;20464;-70
2022/06/15 00:22:18;;;;;;;13.50;12.70;;;16.40;99.90;;;;;;4972227;28;20890;-70
2022/06/15 00:24:44;;;;;;;12.93;12.23;;;16.40;99.90;;;;;;4972014;28;20452;-70
2022/06/15 00:27:11;;;;;;;13.37;12.63;;;16.40;99.90;;;;;;4972022;28;20455;-70
2022/06/15 00:29:38;;;;;;;14.07;13.07;;;16.40;99.90;;;;;;4972092;28;20451;-69
2022/06/15 00:32:05;;;;;;;13.27;12.37;;;16.40;99.90;;;;;;4972095;28;20484;-70
2022/06/15 00:34:32;;;;;;;14.17;13.17;;;16.30;99.90;;;;;;4972202;28;20455;-70
2022/06/15 00:36:59;;;;;;;14.73;13.83;;;16.20;99.90;;;;;;4971948;28;20444;-70
2022/06/15 00:39:28;;;;;;;14.37;13.50;;;16.00;99.90;;;;;;4971714;28;20949;-69
2022/06/15 00:41:54;;;;;;;14.90;13.83;;;15.90;99.90;;;;;;4971655;28;20456;-69
2022/06/15 00:44:38;;;;;;;15.63;13.20;;;15.80;99.90;;;;;;4971810;28;20952;-69
2022/06/15 00:47:11;;;;;;;16.27;14.03;;;15.80;99.90;;;;;;4971472;28;20953;-68
2022/06/15 00:49:41;;;;;;;14.87;13.77;;;15.70;99.90;;;;;;4972018;28;20455;-68
2022/06/15 00:52:11;;;;;;;16.27;13.63;;;15.70;99.90;;;;;;4971721;28;20451;-68
2022/06/15 00:54:40;;;;;;;15.53;13.93;;;15.70;99.90;;;;;;4971496;28;20459;-68
2022/06/15 00:57:07;;;;;;;14.83;13.23;;;15.70;99.90;;;;;;4971628;28;20460;-68
2022/06/15 00:59:38;;;;;;;14.57;13.10;;;15.80;99.90;;;;;;4971832;28;20976;-69
2022/06/15 01:02:05;;;;;;;15.13;14.03;;;15.80;99.90;;;;;;4971301;28;20492;-68
2022/06/15 01:04:39;;;;;;;14.77;13.50;;;15.80;99.90;;;;;;4971680;28;20503;-71
2022/06/15 01:07:19;;;;;;;14.87;13.67;;;16.00;99.90;;;;;;4971481;28;20557;-70
2022/06/15 01:09:54;;;;;;;15.43;14.13;;;16.00;99.90;;;;;;4971559;28;20859;-70
2022/06/15 01:12:28;;;;;;;19.33;13.60;;;16.10;99.90;;;;;;4971576;28;20474;-70
2022/06/15 01:15:10;;;;;;;14.30;13.20;;;16.10;99.90;;;;;;4971279;28;20492;-71
2022/06/15 01:17:52;;;;;;;13.37;12.47;;;16.20;99.90;;;;;;4971286;28;20515;-69
2022/06/15 01:20:32;;;;;;;14.50;13.20;;;16.20;99.90;;;;;;4971469;28;20459;-69
2022/06/15 01:23:29;;;;;;;13.63;12.83;;;16.10;99.90;;;;;;4971100;28;20542;-68
2022/06/15 01:26:13;;;;;;;15.50;13.97;;;16.00;99.90;;;;;;4971086;28;20503;-68
2022/06/15 01:28:45;;;;;;;14.73;13.57;;;16.00;99.90;;;;;;4971017;28;20455;-70
2022/06/15 01:31:22;;;;;;;15.20;14.00;;;16.00;99.90;;;;;;4970917;28;20451;-69
2022/06/15 01:34:00;;;;;;;15.73;14.63;;;16.00;99.90;;;;;;4971479;28;20498;-70
2022/06/15 01:36:35;;;;;;;14.80;13.90;;;15.80;99.90;;;;;;4970838;28;20459;-70
2022/06/15 01:39:07;;;;;;;16.63;15.33;;;15.80;99.90;;;;;;4970997;28;20506;-70
2022/06/15 01:41:35;;;;;;;17.30;16.10;;;15.80;99.90;;;;;;4971241;28;20459;-70
2022/06/15 01:44:08;;;;;;;18.53;17.00;;;15.70;99.90;;;;;;4971094;28;20480;-69
2022/06/15 01:46:40;;;;;;;17.40;16.10;;;15.60;99.90;;;;;;4971132;28;20462;-71
2022/06/15 01:49:09;;;;;;;16.23;14.80;;;15.60;99.90;;;;;;4970882;28;20957;-71
2022/06/15 01:51:42;;;;;;;16.63;15.03;;;15.70;99.90;;;;;;4970922;28;20618;-71
2022/06/15 01:54:14;;;;;;;16.70;15.40;;;15.60;99.90;;;;;;4970668;28;20495;-70
2022/06/15 01:56:46;;;;;;;17.73;16.00;;;15.60;99.90;;;;;;4970261;28;21001;-70
2022/06/15 01:59:17;;;;;;;16.87;15.40;;;15.50;99.90;;;;;;4970515;28;20511;-68
2022/06/15 02:01:53;;;;;;;16.97;15.40;;;15.40;99.90;;;;;;4970425;28;20534;-71
2022/06/15 02:04:28;;;;;;;16.63;15.43;;;15.30;99.90;;;;;;4970845;28;20487;-68
2022/06/15 02:07:04;;;;;;;16.10;15.10;;;15.20;99.90;;;;;;4970349;28;20456;-69
2022/06/15 02:09:38;;;;;;;17.23;15.63;;;15.10;99.90;;;;;;4970712;28;20487;-69
2022/06/15 02:12:07;;;;;;;17.37;15.90;;;15.00;99.90;;;;;;4970826;28;20818;-69
2022/06/15 02:14:39;;;;;;;15.97;14.97;;;15.10;99.90;;;;;;4970702;28;20514;-69
2022/06/15 02:17:11;;;;;;;17.13;15.80;;;15.00;99.90;;;;;;4970574;28;20460;-68
2022/06/15 02:19:42;;;;;;;18.00;16.80;;;14.90;99.90;;;;;;4970403;28;20461;-68
2022/06/15 02:22:13;;;;;;;17.53;16.43;;;14.80;99.90;;;;;;4970452;28;20498;-68
2022/06/15 02:24:43;;;;;;;17.47;16.17;;;14.60;99.90;;;;;;4970474;28;20458;-67
2022/06/15 02:27:12;;;;;;;18.30;16.90;;;14.60;99.90;;;;;;4970262;28;20511;-68
2022/06/15 02:29:40;;;;;;;17.87;16.57;;;14.50;99.90;;;;;;4970229;28;20491;-69
2022/06/15 02:32:09;;;;;;;17.77;16.70;;;14.50;99.90;;;;;;4970381;28;20452;-70
2022/06/15 02:34:36;;;;;;;17.90;16.87;;;14.50;99.90;;;;;;4970526;28;20451;-68
2022/06/15 02:37:05;;;;;;;17.10;16.10;;;14.40;99.90;;;;;;4970456;28;20790;-72
2022/06/15 02:39:31;;;;;;;18.00;16.83;;;14.40;99.90;;;;;;4970365;28;20455;-70
2022/06/15 02:41:59;;;;;;;19.73;18.23;;;14.30;99.90;;;;;;4970439;28;20448;-70
2022/06/15 02:44:29;;;;;;;18.10;16.87;;;14.30;99.90;;;;;;4970108;28;20526;-70
2022/06/15 02:46:57;;;;;;;17.43;16.33;;;14.20;99.90;;;;;;4970166;28;20887;-70
2022/06/15 02:49:25;;;;;;;17.83;16.53;;;14.20;99.90;;;;;;4970172;28;20458;-70
2022/06/15 02:51:56;;;;;;;19.00;17.70;;;14.10;99.90;;;;;;4970329;28;20514;-70
2022/06/15 02:54:28;;;;;;;19.10;17.60;;;13.90;99.90;;;;;;4970028;28;21029;-70
2022/06/15 02:56:55;;;;;;;19.13;17.80;;;13.70;99.90;;;;;;4970311;28;20783;-68
2022/06/15 02:59:22;;;;;;;19.10;17.80;;;13.70;99.90;;;;;;4970285;28;20498;-68
2022/06/15 03:01:49;;;;;;;17.80;16.50;;;13.80;99.90;;;;;;4970089;28;20482;-68
2022/06/15 03:04:15;;;;;;;18.70;17.13;;;13.90;99.90;;;;;;4969886;28;20546;-69
2022/06/15 03:06:43;;;;;;;18.30;16.87;;;13.90;99.90;;;;;;4970011;28;20463;-69
2022/06/15 03:09:10;;;;;;;18.10;16.43;;;14.00;99.90;;;;;;4971418;28;20823;-69
2022/06/15 03:11:39;;;;;;;17.80;16.33;;;14.00;99.90;;;;;;4973596;28;20522;-69
2022/06/15 03:14:06;;;;;;;19.13;17.60;;;14.00;99.90;;;;;;4973531;28;20455;-68
2022/06/15 03:16:32;;;;;;;17.23;16.07;;;14.00;99.90;;;;;;4973296;28;20942;-69
2022/06/15 03:18:59;;;;;;;18.73;17.53;;;14.10;99.90;;;;;;4973216;28;20456;-68
2022/06/15 03:21:27;;;;;;;19.83;18.30;;;14.20;99.90;;;;;;4973181;28;20452;-69
2022/06/15 03:23:55;;;;;;;17.70;16.40;;;14.30;99.90;;;;;;4973105;28;20578;-69
2022/06/15 03:26:22;;;;;;;17.77;16.57;;;14.40;99.90;;;;;;4973148;28;20894;-69
2022/06/15 03:28:49;;;;;;;18.67;17.37;;;14.40;99.90;;;;;;4973304;28;20456;-69
2022/06/15 03:31:15;;;;;;;17.10;16.10;;;14.40;99.90;;;;;;4972850;28;20460;-69
2022/06/15 03:33:42;;;;;;;17.90;16.10;;;14.40;99.90;;;;;;4973079;28;20487;-69
2022/06/15 03:36:09;;;;;;;18.30;17.07;;;14.40;99.90;;;;;;4972868;28;20518;-69
2022/06/15 03:38:35;;;;;;;17.73;16.60;;;14.40;99.90;;;;;;4973122;28;20452;-69
2022/06/15 03:41:03;;;;;;;18.77;16.97;;;14.40;99.90;;;;;;4972914;28;20456;-69
2022/06/15 03:43:30;;;;;;;18.53;17.10;;;14.40;99.90;;;;;;4972782;28;20849;-70
2022/06/15 03:45:57;;;;;;;18.07;16.77;;;14.30;99.90;;;;;;4972602;28;20460;-68
2022/06/15 03:48:24;;;;;;;19.30;17.83;;;14.30;99.90;;;;;;4972662;28;20456;-69
2022/06/15 03:50:50;;;;;;;19.30;17.60;;;14.30;99.90;;;;;;4973031;28;20980;-70
2022/06/15 03:53:17;;;;;;;17.60;16.40;;;14.30;99.90;;;;;;4972789;28;20869;-69
2022/06/15 03:55:44;;;;;;;19.67;17.60;;;14.30;99.90;;;;;;4972691;28;20459;-69
2022/06/15 03:58:14;;;;;;;17.93;16.63;;;14.30;99.90;;;;;;4972381;28;21185;-69
2022/06/15 04:00:41;;;;;;;18.27;16.77;;;14.30;99.90;;;;;;4972141;28;20631;-69
2022/06/15 04:03:08;;;;;;;16.43;15.50;;;14.30;99.90;;;;;;4972148;28;20495;-69
2022/06/15 04:05:39;;;;;;;19.43;16.40;;;14.40;99.90;;;;;;4972740;28;20460;-69
2022/06/15 04:10:50;;;;;;;19.30;17.30;;;14.40;99.90;;;;;;4972881;28;21042;-70
2022/06/15 04:13:20;;;;;;;19.80;18.13;;;14.50;99.90;;;;;;4972581;28;20531;-69
2022/06/15 04:15:48;;;;;;;19.37;17.77;;;14.50;99.90;;;;;;4972665;28;20863;-69
2022/06/15 04:18:15;;;;;;;22.67;19.20;;;14.60;99.90;;;;;;4972103;28;21016;-69
2022/06/15 04:20:42;;;;;;;19.83;16.50;;;14.60;99.90;;;;;;4971912;28;20481;-69
2022/06/15 04:23:10;;;;;;;20.03;18.00;;;14.90;99.90;;;;;;4972227;28;20574;-69
2022/06/15 04:25:39;;;;;;;17.83;16.53;;;15.60;99.90;;;;;;4972346;28;20458;-70
2022/06/15 04:28:08;;;;;;;17.70;16.13;;;16.20;99.90;;;;;;4972308;28;21010;-68
2022/06/15 04:30:36;;;;;;;16.60;15.40;;;16.70;99.90;;;;;;4971955;28;20473;-68
2022/06/15 04:33:02;;;;;;;19.40;17.60;;;17.10;99.90;;;;;;4972095;28;20456;-70
2022/06/15 04:35:29;;;;;;;16.83;15.80;;;17.30;99.90;;;;;;4971729;28;20456;-69
2022/06/15 04:37:56;;;;;;;18.00;16.37;;;17.60;99.90;;;;;;4971695;28;20526;-69
2022/06/15 04:40:23;;;;;;;18.17;16.77;;;17.90;99.90;;;;;;4971529;28;20460;-70
2022/06/15 04:42:50;;;;;;;17.63;15.73;;;18.00;99.90;;;;;;4971740;28;20455;-70
2022/06/15 04:45:18;;;;;;;22.10;17.10;;;18.20;99.90;;;;;;4971627;28;20488;-70
2022/06/15 04:47:46;;;;;;;22.73;16.70;;;18.40;99.90;;;;;;4971547;28;20484;-69
2022/06/15 04:50:14;;;;;;;19.93;17.87;;;18.60;99.90;;;;;;4971405;28;20455;-69
2022/06/15 04:52:42;;;;;;;19.03;17.33;;;18.90;99.90;;;;;;4971367;28;20460;-69
2022/06/15 04:55:10;;;;;;;18.07;15.70;;;19.30;99.90;;;;;;4971356;28;20844;-69
2022/06/15 04:57:37;;;;;;;16.17;15.03;;;19.40;99.90;;;;;;4971589;28;20462;-69
2022/06/15 05:00:06;;;;;;;17.07;15.57;;;19.60;99.90;;;;;;4970406;28;20848;-69
2022/06/15 05:02:33;;;;;;;16.13;14.70;;;19.80;99.90;;;;;;4961149;28;20919;-68
2022/06/15 05:05:01;;;;;;;19.07;16.23;;;20.20;99.90;;;;;;4952462;29;20496;-70
2022/06/15 05:07:27;;;;;;;16.93;15.47;;;20.70;99.90;;;;;;4958639;28;20467;-69
2022/06/15 05:09:54;;;;;;;15.77;14.80;;;20.80;99.90;;;;;;4956262;28;20812;-69
2022/06/15 05:12:21;;;;;;;17.53;16.23;;;20.80;99.90;;;;;;4952615;29;20512;-70
2022/06/15 05:14:48;;;;;;;15.30;14.40;;;20.80;99.70;;;;;;4952515;29;20935;-69
2022/06/15 05:17:15;;;;;;;15.90;14.97;;;20.80;99.90;;;;;;4952335;29;20876;-69
2022/06/15 05:19:42;;;;;;;15.10;14.20;;;20.80;99.70;;;;;;4952366;29;20515;-68
2022/06/15 05:22:11;;;;;;;16.37;15.30;;;21.20;98.80;;;;;;4952364;29;20821;-70
2022/06/15 05:24:38;;;;;;;16.80;15.50;;;21.50;97.90;;;;;;4951909;29;20496;-70
2022/06/15 05:27:05;;;;;;;14.07;13.37;;;21.60;97.60;;;;;;4952262;29;20509;-70
2022/06/15 05:29:32;;;;;;;15.27;14.30;;;21.60;96.30;;;;;;4952326;29;20459;-70
2022/06/15 05:31:59;;;;;;;15.60;14.53;;;21.30;97.10;;;;;;4951566;28;20459;-68
2022/06/15 05:34:26;;;;;;;14.90;14.20;;;21.50;97.10;;;;;;4952248;29;20521;-68
2022/06/15 05:36:52;;;;;;;15.60;14.70;;;21.60;96.80;;;;;;4952418;29;20449;-68
2022/06/15 05:39:20;;;;;;;15.57;14.57;;;21.60;96.70;;;;;;4952831;29;20459;-70
2022/06/15 05:41:49;;;;;;;15.53;14.43;;;21.90;95.90;;;;;;4952397;29;20801;-69
2022/06/15 05:44:17;;;;;;;16.87;15.93;;;22.10;95.40;;;;;;4952435;29;20524;-69
2022/06/15 05:46:44;;;;;;;15.43;14.43;;;22.10;95.70;;;;;;4952208;29;20476;-69
2022/06/15 05:49:11;;;;;;;16.30;15.30;;;22.30;95.20;;;;;;4952298;29;20475;-69
2022/06/15 05:51:38;;;;;;;17.07;15.87;;;22.60;95.00;;;;;;4952280;29;20536;-70
2022/06/15 05:54:05;;;;;;;16.47;15.57;;;23.00;94.20;;;;;;4952321;29;20452;-69
2022/06/15 05:56:33;;;;;;;19.20;17.17;;;23.30;93.40;;;;;;4952306;29;20875;-70
2022/06/15 05:59:01;;;;;;;16.20;15.10;;;23.50;93.30;;;;;;4952304;29;20545;-70
2022/06/15 06:01:29;;;;;;;17.37;15.93;;;23.70;92.70;;;;;;4951330;28;20567;-70
2022/06/15 06:03:56;;;;;;;16.90;15.70;;;23.70;92.80;;;;;;4970930;28;20547;-69
2022/06/15 06:06:23;;;;;;;24.07;17.93;;;23.40;93.40;;;;;;4971407;28;20456;-71
2022/06/15 06:08:50;;;;;;;16.43;15.43;;;23.70;93.00;;;;;;4965639;28;20518;-70
2022/06/15 06:11:18;;;;;;;16.83;15.80;;;23.70;92.40;;;;;;4965002;28;20460;-70
2022/06/15 06:13:46;;;;;;;17.37;16.27;;;23.60;91.90;;;;;;4971637;28;20444;-69
2022/06/15 06:16:13;;;;;;;14.80;14.10;;;23.60;91.90;;;;;;4970991;28;20456;-69
2022/06/15 06:18:40;;;;;;;15.30;14.40;;;23.80;91.70;;;;;;4971336;28;20454;-70
2022/06/15 06:21:07;;;;;;;16.07;15.13;;;24.10;91.00;;;;;;4982591;28;20450;-69
2022/06/15 06:23:34;;;;;;;16.30;15.30;;;24.30;91.00;;;;;;4976451;28;20517;-72
2022/06/15 06:26:01;;;;;;;15.60;14.70;;;24.90;89.60;;;;;;4991236;28;20521;-70
2022/06/15 06:28:30;;;;;;;15.67;14.67;;;25.30;86.30;;;;;;4981114;28;20685;-69
2022/06/15 06:31:00;;;;;;;15.77;14.93;;;25.60;83.50;;;;;;4971520;28;20977;-70
2022/06/15 06:33:28;;;;;;;15.73;14.73;;;25.40;82.80;;;;;;4971750;28;20491;-70
2022/06/15 06:35:55;;;;;;;16.17;15.10;;;25.10;84.00;;;;;;4972282;28;20485;-70
2022/06/15 06:38:24;;;;;;;15.43;14.63;;;25.20;83.30;;;;;;4990645;28;20454;-70
2022/06/15 06:40:51;;;;;;;18.10;16.70;;;25.00;84.70;;;;;;4991181;28;20479;-70
2022/06/15 06:43:18;;;;;;;16.80;15.70;;;25.30;84.30;;;;;;4992820;28;20458;-70
2022/06/15 06:45:45;;;;;;;16.20;15.30;;;25.40;82.70;;;;;;4994396;28;20509;-69
2022/06/15 06:48:13;;;;;;;16.90;15.63;;;25.40;83.60;;;;;;4994120;28;20976;-69
2022/06/15 06:50:40;;;;;;;16.30;15.30;;;25.70;82.40;;;;;;4974848;28;20451;-69
2022/06/15 06:53:08;;;;;;;16.37;15.60;;;25.80;82.10;;;;;;4976762;28;20483;-70
2022/06/15 06:55:35;;;;;;;15.40;14.60;;;26.00;81.90;;;;;;4994432;28;20451;-70
2022/06/15 06:58:03;;;;;;;17.17;16.10;;;26.50;79.80;;;;;;4994512;28;20443;-70
2022/06/15 07:00:32;;;;;;;16.30;15.20;;;26.90;77.30;;;;;;4994149;28;20454;-69
2022/06/15 07:03:00;;;;;;;16.00;15.00;;;27.00;74.40;;;;;;4990370;28;20479;-70
2022/06/15 07:05:28;;;;;;;15.23;14.00;;;26.90;74.60;;;;;;4974487;28;20483;-70
2022/06/15 07:07:55;;;;;;;15.53;14.77;;;26.90;73.50;;;;;;4974480;28;20506;-70
2022/06/15 07:10:22;;;;;;;15.77;14.97;;;26.90;73.70;;;;;;4968176;28;20833;-71
2022/06/15 07:12:49;;;;;;;15.20;14.43;;;26.70;74.80;;;;;;4955450;29;20453;-71
2022/06/15 07:15:15;;;;;;;15.70;14.90;;;27.00;73.90;;;;;;4955484;29;20452;-70
2022/06/15 07:17:42;;;;;;;16.33;15.43;;;27.00;74.10;;;;;;4969898;28;20810;-70
2022/06/15 07:20:11;;;;;;;16.03;15.33;;;26.80;74.80;;;;;;4974393;28;20460;-70
2022/06/15 07:22:40;;;;;;;14.83;14.10;;;26.90;75.00;;;;;;4974448;28;20448;-71
2022/06/15 07:25:49;;;;;;;16.37;15.37;;;27.10;74.10;;;;;;4974404;28;20494;-67
2022/06/15 10:04:48;;;;;;;18.50;17.50;;;37.20;41.50;;;;;;6026533;23;21001;-74
2022/06/15 10:07:25;;;;;;;17.53;16.53;;;35.90;42.80;;;;;;4968323;28;20472;-74
2022/06/15 10:09:56;;;;;;;17.30;16.60;;;35.70;42.80;;;;;;4970627;28;20455;-74
2022/06/15 10:12:57;;;;;;;16.33;15.63;;;35.70;43.90;;;;;;4970764;28;20443;-73
2022/06/15 10:15:31;;;;;;;17.90;17.00;;;36.40;43.10;;;;;;4970695;28;20463;-73
2022/06/15 10:18:08;;;;;;;17.70;16.90;;;37.00;41.90;;;;;;4972207;28;20468;-73
2022/06/15 10:20:39;;;;;;;17.37;16.40;;;37.70;41.30;;;;;;4972400;28;20458;-73
2022/06/15 10:23:17;;;;;;;18.10;17.30;;;37.70;40.90;;;;;;4972236;28;20452;-74
2022/06/15 10:25:51;;;;;;;18.60;17.40;;;38.30;38.80;;;;;;4973215;28;20487;-74
2022/06/15 10:28:23;;;;;;;19.97;18.67;;;39.10;37.90;;;;;;4974324;28;20602;-74
2022/06/15 10:30:53;;;;;;;18.10;17.10;;;38.70;37.30;;;;;;4974398;28;20455;-74
2022/06/15 10:33:20;;;;;;;19.00;18.00;;;39.00;37.90;;;;;;4974455;28;20459;-74
2022/06/15 10:35:56;;;;;;;18.27;17.47;;;40.20;36.50;;;;;;4974439;28;20831;-74
2022/06/15 10:38:24;;;;;;;18.73;17.83;;;39.80;36.10;;;;;;4974740;28;20482;-74
2022/06/15 10:40:56;;;;;;;18.33;17.53;;;39.80;35.80;;;;;;4974420;28;20462;-74
2022/06/15 10:43:29;;;;;;;19.33;18.33;;;39.80;35.10;;;;;;4974502;28;20482;-75
2022/06/15 10:45:59;;;;;;;19.17;18.27;;;39.40;35.70;;;;;;4974530;28;20491;-75
2022/06/15 10:48:31;;;;;;;18.10;17.30;;;39.90;35.00;;;;;;4974853;28;20796;-75
2022/06/15 10:51:04;;;;;;;18.13;17.27;;;40.10;34.80;;;;;;4974576;28;20451;-74
2022/06/15 10:53:39;;;;;;;17.90;17.20;;;40.70;34.00;;;;;;4974297;28;20494;-74
2022/06/15 11:02:10;;;;;;;18.70;17.90;;;40.40;33.40;;;;;;4933326;29;20469;-75
2022/06/15 11:04:50;;;;;;;19.33;18.33;;;39.90;33.40;;;;;;4932948;29;21230;-75
2022/06/15 11:07:29;;;;;;;19.97;18.87;;;40.10;33.50;;;;;;4957305;28;20450;-75
2022/06/15 11:10:20;;;;;;;18.47;17.57;;;40.40;32.90;;;;;;4973979;28;20924;-75
2022/06/15 11:12:50;;;;;;;17.87;17.17;;;39.70;32.10;;;;;;4973575;28;20481;-75
2022/06/15 11:18:29;;;;;;;18.27;17.47;;;39.10;32.60;;;;;;4973243;28;20467;-75
2022/06/15 11:21:01;;;;;;;18.53;17.67;;;38.50;32.30;;;;;;4973096;28;20944;-75
2022/06/15 11:23:36;;;;;;;17.50;16.80;;;38.20;32.30;;;;;;4973068;28;20491;-74
2022/06/15 11:26:52;;;;;;;18.00;17.20;;;38.20;32.20;;;;;;4972818;28;20569;-75
2022/06/15 11:28:56;;;;;;;19.27;18.10;;;38.80;32.50;;;;;;4972155;28;20527;-75
2022/06/15 11:31:27;;;;;;;17.77;17.10;;;38.90;31.90;;;;;;4972469;28;20448;-75
2022/06/15 11:33:59;;;;;;;17.20;16.60;;;38.50;32.20;;;;;;4972841;28;20997;-74
2022/06/15 11:36:32;;;;;;;17.60;16.90;;;38.80;32.10;;;;;;4972969;28;20451;-74
2022/06/15 11:39:07;;;;;;;17.67;16.80;;;38.80;32.80;;;;;;4972707;28;20819;-74
2022/06/15 11:41:41;;;;;;;17.87;16.97;;;38.50;32.90;;;;;;4972358;28;20459;-74
2022/06/15 11:44:15;;;;;;;17.80;16.90;;;38.30;33.10;;;;;;4972504;28;20944;-74
2022/06/15 11:47:09;;;;;;;17.00;16.10;;;37.70;33.70;;;;;;4972717;28;20479;-74
2022/06/15 11:49:44;;;;;;;16.30;15.60;;;37.50;33.90;;;;;;4972397;28;20857;-74
2022/06/15 11:52:41;;;;;;;18.23;17.43;;;37.10;34.30;;;;;;4972743;28;20803;-74
2022/06/15 11:55:28;;;;;;;17.27;16.27;;;37.60;34.60;;;;;;4972325;28;20477;-74
2022/06/15 11:58:21;;;;;;;16.10;15.50;;;37.70;33.60;;;;;;4972420;28;20451;-74
2022/06/15 12:00:55;;;;;;;17.97;17.07;;;37.30;33.70;;;;;;4972042;28;20463;-74
2022/06/15 12:03:33;;;;;;;16.23;15.63;;;37.80;33.10;;;;;;4972058;28;20479;-74
2022/06/15 12:06:05;;;;;;;16.87;16.27;;;38.50;32.70;;;;;;4971415;28;21024;-74
2022/06/15 12:08:47;;;;;;;18.10;17.40;;;37.90;33.40;;;;;;4972235;28;20452;-74
2022/06/15 12:14:11;;;;;;;16.60;15.80;;;38.10;32.50;;;;;;4972478;28;20435;-74
2022/06/15 12:16:44;;;;;;;17.20;16.20;;;37.40;33.60;;;;;;4972615;28;20478;-74
2022/06/15 12:19:20;;;;;;;17.10;16.10;;;37.60;33.30;;;;;;4972777;28;20452;-74
2022/06/15 12:21:54;;;;;;;17.97;17.27;;;37.50;33.10;;;;;;4972282;28;20461;-75
2022/06/15 12:24:26;;;;;;;16.00;15.40;;;38.00;32.60;;;;;;4972487;28;20455;-74
2022/06/15 12:27:04;;;;;;;16.37;15.67;;;38.10;32.60;;;;;;4972287;28;21029;-74
2022/06/15 12:29:43;;;;;;;16.00;15.13;;;38.90;31.80;;;;;;4972260;28;20451;-74
2022/06/15 12:32:33;;;;;;;16.60;15.90;;;38.70;30.60;;;;;;4972239;28;20499;-74
2022/06/15 12:35:10;;;;;;;17.27;16.27;;;38.40;31.10;;;;;;4971919;28;20452;-74
2022/06/15 12:37:42;;;;;;;17.37;16.77;;;38.70;31.90;;;;;;4971916;28;20942;-74
2022/06/15 12:40:17;;;;;;;18.00;17.20;;;39.60;30.10;;;;;;4971834;28;20459;-74
2022/06/15 12:42:50;;;;;;;17.50;16.70;;;39.50;30.20;;;;;;4972045;28;20455;-75
2022/06/15 12:45:23;;;;;;;18.43;17.70;;;39.90;29.70;;;;;;4971857;28;20491;-74
2022/06/15 12:47:56;;;;;;;18.20;17.40;;;40.10;29.70;;;;;;4971878;28;20448;-75
2022/06/15 12:50:41;;;;;;;18.50;17.70;;;40.90;29.50;;;;;;4971984;28;20942;-75
2022/06/15 12:53:25;;;;;;;18.47;17.67;;;41.50;28.80;;;;;;4971993;28;20447;-74
2022/06/15 12:55:59;;;;;;;17.63;16.83;;;40.10;29.80;;;;;;4971648;28;20815;-74
2022/06/15 12:58:34;;;;;;;17.63;16.90;;;38.70;31.10;;;;;;4971966;28;20455;-74
2022/06/15 13:01:09;;;;;;;17.47;16.67;;;38.30;32.10;;;;;;4971583;28;20955;-74
2022/06/15 13:03:48;;;;;;;16.43;15.83;;;38.90;31.40;;;;;;4971543;28;20812;-74
2022/06/15 13:06:25;;;;;;;17.70;16.90;;;38.30;31.60;;;;;;4971208;28;21051;-74
2022/06/15 13:09:19;;;;;;;16.57;15.87;;;37.50;32.90;;;;;;4971672;28;20447;-74
2022/06/15 13:11:53;;;;;;;15.83;15.17;;;37.90;32.70;;;;;;4971576;28;20964;-74
2022/06/15 13:14:24;;;;;;;18.07;17.20;;;38.60;32.20;;;;;;4971736;28;20679;-74
2022/06/15 13:17:04;;;;;;;16.37;15.67;;;38.30;31.70;;;;;;4971471;28;20473;-74
2022/06/15 13:19:37;;;;;;;16.70;15.90;;;37.20;32.70;;;;;;4971303;28;20451;-73
2022/06/15 13:22:14;;;;;;;15.67;14.87;;;37.00;33.50;;;;;;4971254;28;20475;-74
2022/06/15 13:24:52;;;;;;;16.63;15.93;;;37.50;33.60;;;;;;4971715;28;20463;-74
2022/06/15 13:27:23;;;;;;;17.70;16.90;;;38.20;32.80;;;;;;4971398;28;20448;-75
2022/06/15 13:30:08;;;;;;;16.93;15.63;;;38.30;32.00;;;;;;4973185;28;20455;-74
2022/06/15 13:32:51;;;;;;;16.10;15.30;;;37.90;32.80;;;;;;4972987;28;20538;-74
2022/06/15 13:35:20;;;;;;;17.37;16.63;;;37.30;33.40;;;;;;4971963;28;20443;-74
2022/06/15 13:37:59;;;;;;;17.20;16.50;;;37.90;33.30;;;;;;4971026;28;20454;-74
2022/06/15 13:41:04;;;;;;;17.07;16.17;;;38.80;32.20;;;;;;4971344;28;20510;-74
2022/06/15 13:43:53;;;;;;;17.70;16.50;;;39.00;31.40;;;;;;4970807;28;20451;-74
2022/06/15 13:46:31;;;;;;;17.47;16.57;;;38.50;31.50;;;;;;4970795;28;20483;-74
2022/06/15 13:49:04;;;;;;;17.73;16.83;;;38.40;31.50;;;;;;4971355;28;20940;-74
2022/06/15 13:51:35;;;;;;;16.73;15.90;;;37.80;32.10;;;;;;4970946;28;20452;-74
2022/06/15 13:54:13;;;;;;;17.17;16.27;;;38.00;32.30;;;;;;4970287;28;20945;-74
2022/06/15 13:56:49;;;;;;;16.90;16.00;;;38.00;32.50;;;;;;4971083;28;20458;-74
2022/06/15 13:59:24;;;;;;;17.33;16.53;;;38.10;32.10;;;;;;4970858;28;20447;-74
2022/06/15 14:02:24;;;;;;;15.60;14.90;;;38.40;32.10;;;;;;4970837;28;20454;-74
2022/06/15 14:05:04;;;;;;;17.40;16.70;;;38.10;32.80;;;;;;4970225;28;20463;-74
2022/06/15 14:07:54;;;;;;;18.77;17.83;;;37.70;33.40;;;;;;4970777;28;20941;-74
2022/06/15 14:10:39;;;;;;;16.43;15.73;;;37.20;33.20;;;;;;4970734;28;20542;-74
2022/06/15 14:13:27;;;;;;;16.23;15.33;;;37.30;33.50;;;;;;4970684;28;20503;-75
2022/06/15 14:16:06;;;;;;;16.43;15.70;;;37.00;33.20;;;;;;4958069;28;20455;-75
2022/06/15 14:18:42;;;;;;;16.40;15.67;;;36.90;33.60;;;;;;4970642;28;20460;-74
2022/06/15 14:21:19;;;;;;;15.90;15.20;;;37.10;33.70;;;;;;4970762;28;20949;-74
2022/06/15 14:23:46;;;;;;;16.87;16.07;;;36.40;34.00;;;;;;4970569;28;20558;-74
2022/06/15 14:26:15;;;;;;;16.70;16.03;;;36.00;34.70;;;;;;4970621;28;20491;-74
2022/06/15 14:28:54;;;;;;;17.27;16.40;;;36.30;34.70;;;;;;4970889;28;20487;-74
2022/06/15 14:31:23;;;;;;;16.43;15.60;;;36.10;34.60;;;;;;4970681;28;20455;-74
2022/06/15 14:33:56;;;;;;;15.90;15.30;;;35.90;34.40;;;;;;4970494;28;20836;-74
2022/06/15 14:36:25;;;;;;;16.10;15.50;;;35.00;36.00;;;;;;4970716;28;20494;-74
2022/06/15 14:38:59;;;;;;;17.33;16.33;;;35.00;36.60;;;;;;4970458;28;20459;-74
2022/06/15 14:41:29;;;;;;;16.80;15.97;;;35.40;36.00;;;;;;4970696;28;20455;-74
2022/06/15 14:43:55;;;;;;;16.50;15.73;;;35.90;36.00;;;;;;4970793;28;20451;-73
2022/06/15 14:46:25;;;;;;;16.63;15.90;;;36.00;35.60;;;;;;4970353;28;20491;-75
2022/06/15 14:48:57;;;;;;;17.80;16.60;;;35.70;35.50;;;;;;4970333;28;20456;-73
2022/06/15 14:51:25;;;;;;;15.20;14.40;;;35.40;36.20;;;;;;4970394;28;20551;-73
2022/06/15 14:54:02;;;;;;;16.90;16.20;;;35.10;36.10;;;;;;4970391;28;20482;-74
2022/06/15 14:56:31;;;;;;;16.20;15.50;;;35.20;36.30;;;;;;4970652;28;20451;-74
2022/06/15 14:59:00;;;;;;;16.00;15.30;;;34.50;37.40;;;;;;4970557;28;20455;-74
2022/06/15 15:01:28;;;;;;;16.27;15.27;;;34.50;37.40;;;;;;4970648;28;20542;-73
2022/06/15 15:04:09;;;;;;;16.47;15.53;;;34.50;37.40;;;;;;4971665;28;20459;-75
2022/06/15 15:06:36;;;;;;;15.97;15.23;;;34.10;38.60;;;;;;4973597;28;20506;-75
2022/06/15 15:09:11;;;;;;;16.73;15.97;;;33.80;39.30;;;;;;4974005;28;20639;-74
2022/06/15 15:11:41;;;;;;;14.63;14.03;;;33.50;38.90;;;;;;4973914;28;20464;-74
2022/06/15 15:14:19;;;;;;;16.07;15.40;;;33.50;39.10;;;;;;4973534;28;20463;-74
2022/06/15 15:16:55;;;;;;;16.00;15.20;;;33.40;39.60;;;;;;4973544;28;20455;-75
2022/06/15 15:19:31;;;;;;;15.20;14.50;;;32.90;39.80;;;;;;4973378;28;20451;-74
2022/06/15 15:22:08;;;;;;;15.97;15.20;;;32.50;40.60;;;;;;4973717;28;20549;-74
2022/06/15 15:24:37;;;;;;;15.70;15.00;;;32.30;41.50;;;;;;4973518;28;20718;-74
2022/06/15 15:27:11;;;;;;;16.13;15.30;;;32.00;41.80;;;;;;4973346;28;20606;-73
2022/06/15 15:36:02;;;;;;;16.07;14.87;;;31.40;42.30;;;;;;4894848;29;20786;-74
2022/06/15 15:38:30;;;;;;;15.93;15.13;;;31.40;42.70;;;;;;4894914;29;20499;-75
2022/06/15 15:40:59;;;;;;;15.57;14.97;;;31.40;43.10;;;;;;4941309;28;20816;-74
2022/06/15 15:43:27;;;;;;;14.90;14.20;;;31.40;43.20;;;;;;4973404;28;20628;-74
2022/06/15 15:45:54;;;;;;;16.80;15.70;;;31.40;43.30;;;;;;4973275;28;20491;-74
2022/06/15 15:48:21;;;;;;;16.67;15.93;;;31.50;43.60;;;;;;4972915;28;20562;-74